Latest Weather Observations for Learmonth

IDW60801

Issued at 8:23 am WST Thursday 21 June 2018 (issued every 10 minutes, with the page automatically refreshed every 10 minutes)

About weather observations | Map of weather stations | Latest weather observations for WA | Other Formats
Station Details ID: 005007 Name: LEARMONTH AIRPORT Lat: -22.24 Lon: 114.10 Height: 5.0 m
Data from the previous 72 hours. | See also: Recent months at Learmonth
Date/Time
WST
Temp
°C
App
Temp
°C
Dew
Point
°C
Rel
Hum
%
Delta-T
°C
Wind Press
QNH
hPa
Press
MSL
hPa
Rain since
9am
mm
Dir  Spd
km/h
Gust
km/h
Spd
kts
Gust
kts
21/08:00am 15.1 14.7 13.0 87 1.2 SW 7 9 4 5 1023.7 - 0.0
21/07:30am 13.4 12.3 11.8 90 0.9 WSW 9 11 5 6 1023.3 - 0.0
21/07:00am 12.9 11.3 11.5 91 0.7 WSW 11 13 6 7 1023.0 - 0.0
21/06:30am 13.2 11.2 11.6 90 0.9 WSW 13 13 7 7 1022.8 - 0.0
21/06:00am 13.3 11.4 11.7 90 0.8 W 13 13 7 7 1022.6 1022.5 0.0
21/05:30am 13.7 12.1 11.7 88 1.1 WSW 11 13 6 7 1022.4 - 0.0
21/05:00am 13.8 11.9 11.7 87 1.1 WSW 13 13 7 7 1022.5 - 0.0
21/04:30am 14.5 13.3 11.6 83 1.6 WSW 9 11 5 6 1022.5 - 0.0
21/04:00am 15.1 13.5 11.7 80 1.8 WSW 11 13 6 7 1022.5 - 0.0
21/03:30am 16.0 15.3 12.0 77 2.2 SW 7 9 4 5 1022.5 - 0.0
21/03:00am 16.0 14.6 12.2 78 2.1 WSW 11 17 6 9 1022.3 1022.2 0.0
21/02:30am 15.4 14.0 12.3 82 1.7 SW 11 15 6 8 1022.3 - 0.0
21/02:00am 15.5 13.4 12.4 82 1.7 SSW 15 15 8 8 1022.3 - 0.0
21/01:30am 16.3 13.9 12.5 78 2.1 SSW 17 19 9 10 1022.5 - 0.0
21/01:00am 16.3 13.9 12.7 79 2.0 SSW 17 20 9 11 1022.5 - 0.0
21/12:30am 16.6 14.2 12.8 78 2.1 SW 17 19 9 10 1022.7 - 0.0
21/12:00am 17.3 14.9 12.8 75 2.5 S 17 22 9 12 1022.8 1022.7 0.0
 
Date/Time
WST
Temp
°C
App
Temp
°C
Dew
Point
°C
Rel
Hum
%
Delta-T
°C
Wind Press
QNH
hPa
Press
MSL
hPa
Rain since
9am
mm
Dir  Spd
km/h
Gust
km/h
Spd
kts
Gust
kts
20/11:30pm 16.5 14.7 13.4 82 1.7 SSW 15 17 8 9 1023.1 - 0.0
20/11:00pm 16.5 14.5 13.8 84 1.5 SSW 17 19 9 10 1023.1 - 0.0
20/10:30pm 16.4 14.8 13.9 85 1.4 SSW 15 17 8 9 1023.2 - 0.0
20/10:00pm 17.1 15.4 14.6 85 1.4 SW 17 19 9 10 1023.1 - 0.0
20/09:30pm 16.8 15.1 14.8 88 1.2 SSW 17 19 9 10 1023.1 - 0.0
20/09:00pm 16.2 14.8 14.4 89 1.0 SW 15 17 8 9 1023.0 1022.9 0.0
20/08:30pm 16.6 15.4 13.9 84 1.5 SSW 13 17 7 9 1023.0 - 0.0
20/08:00pm 17.9 16.2 13.6 76 2.4 WSW 15 17 8 9 1022.6 - 0.0
20/07:30pm 17.6 16.0 12.9 74 2.6 SW 13 17 7 9 1022.3 - 0.0
20/07:00pm 19.3 18.2 13.2 68 3.5 W 11 13 6 7 1021.8 - 0.0
20/06:30pm 20.3 19.9 13.0 63 4.1 SSW 7 7 4 4 1021.4 - 0.0
20/06:00pm 22.2 22.1 9.4 44 6.9 CALM 0 0 0 0 1021.1 1021.0 0.0
20/05:30pm 23.9 23.7 9.1 39 8.0 CALM 0 0 0 0 1021.1 - 0.0
20/05:00pm 24.4 22.8 8.8 37 8.4 N 7 11 4 6 1020.9 - 0.0
20/04:30pm 24.7 22.5 9.4 38 8.3 N 11 15 6 8 1020.8 - 0.0
20/04:00pm 24.8 22.8 10.3 40 8.0 N 11 13 6 7 1020.7 - 0.0
20/03:30pm 24.8 22.1 9.1 37 8.5 N 13 17 7 9 1020.5 - 0.0
20/03:00pm 25.2 22.1 8.7 35 8.9 NNE 15 19 8 10 1020.5 1020.4 0.0
20/02:30pm 25.2 23.1 9.9 38 8.4 NNE 11 17 6 9 1020.7 - 0.0
20/02:00pm 25.0 24.2 11.6 43 7.6 ENE 7 11 4 6 1020.7 - 0.0
20/01:30pm 24.6 23.7 12.5 46 6.9 ENE 9 13 5 7 1020.8 - 0.0
20/01:00pm 24.1 23.2 12.7 49 6.6 E 9 13 5 7 1021.2 - 0.0
20/12:30pm 23.2 22.0 12.8 52 6.0 ESE 11 15 6 8 1021.6 - 0.0
20/12:00pm 22.3 20.8 13.1 56 5.3 E 13 19 7 10 1021.9 1021.8 0.0
20/11:30am 21.6 20.4 14.0 62 4.4 SE 13 17 7 9 1022.3 - 0.0
20/11:00am 20.9 19.5 13.4 62 4.3 SE 13 19 7 10 1022.7 - 0.0
20/10:30am 20.3 18.4 13.0 63 4.1 SE 15 20 8 11 1023.1 - 0.0
20/10:00am 20.0 18.5 13.0 64 4.0 SSE 13 17 7 9 1023.4 - 0.0
20/09:30am 19.4 17.8 12.9 66 3.7 SSE 13 17 7 9 1023.6 - 0.0
20/09:00am 18.4 17.3 13.0 71 3.0 S 11 13 6 7 1023.6 1023.5 0.0
20/08:30am 16.9 15.7 12.8 77 2.3 SSW 11 13 6 7 1023.4 - 0.0
20/08:00am 15.6 14.9 13.1 85 1.4 WSW 9 11 5 6 1023.2 - 0.0
20/07:30am 14.2 12.9 12.4 89 1.0 WSW 11 13 6 7 1023.0 - 0.0
20/07:00am 13.6 11.8 12.2 91 0.8 SW 13 15 7 8 1022.6 - 0.0
20/06:30am 13.9 12.9 12.3 90 0.9 WSW 9 11 5 6 1022.6 - 0.0
20/06:00am 14.1 13.2 12.5 90 0.9 WSW 9 11 5 6 1022.2 1022.1 0.0
20/05:30am 14.0 12.7 12.6 91 0.8 WSW 11 13 6 7 1022.0 - 0.0
20/05:00am 14.3 13.0 12.5 89 1.0 SW 11 11 6 6 1022.0 - 0.0
20/04:30am 14.4 12.8 12.8 90 0.9 SW 13 15 7 8 1022.1 - 0.0
20/04:00am 14.3 12.7 12.9 91 0.8 SW 13 15 7 8 1022.0 - 0.0
20/03:30am 14.4 13.2 12.8 90 0.9 SW 11 13 6 7 1022.0 - 0.0
20/03:00am 14.9 13.7 12.9 88 1.1 SW 11 11 6 6 1022.0 1021.9 0.0
20/02:30am 15.3 13.8 13.1 87 1.2 SW 13 15 7 8 1022.1 - 0.0
20/02:00am 15.4 13.9 13.2 87 1.2 WSW 13 13 7 7 1022.3 - 0.0
20/01:30am 15.8 14.4 13.5 86 1.3 WSW 13 17 7 9 1022.1 - 0.0
20/01:00am 16.3 14.6 13.6 84 1.5 SW 15 17 8 9 1022.1 - 0.0
20/12:30am 16.8 15.3 14.1 84 1.5 S 15 20 8 11 1022.1 - 0.0
20/12:00am 16.6 15.1 14.2 86 1.4 S 15 17 8 9 1022.1 1022.0 0.0
 
Date/Time
WST
Temp
°C
App
Temp
°C
Dew
Point
°C
Rel
Hum
%
Delta-T
°C
Wind Press
QNH
hPa
Press
MSL
hPa
Rain since
9am
mm
Dir  Spd
km/h
Gust
km/h
Spd
kts
Gust
kts
19/11:30pm 15.9 14.7 13.9 88 1.1 SSW 13 15 7 8 1022.2 - 0.0
19/11:00pm 16.6 14.7 14.2 86 1.4 S 17 19 9 10 1022.1 - 0.0
19/10:30pm 16.7 14.9 14.5 87 1.3 S 17 20 9 11 1022.0 - 0.0
19/10:00pm 16.7 15.4 14.7 88 1.1 SSW 15 17 8 9 1021.9 - 0.0
19/09:30pm 16.5 15.2 14.9 90 0.9 SSW 15 17 8 9 1021.7 - 0.0
19/09:00pm 16.7 15.8 14.9 89 1.0 SSW 13 15 7 8 1021.6 1021.5 0.0
19/08:30pm 17.1 16.2 14.9 87 1.3 SSW 13 17 7 9 1021.5 - 0.0
19/08:00pm 17.3 16.4 14.9 86 1.4 SSW 13 17 7 9 1021.2 - 0.0
19/07:30pm 17.5 16.6 14.8 84 1.6 SSW 13 13 7 7 1020.9 - 0.0
19/07:00pm 18.4 17.5 14.9 80 2.0 S 13 13 7 7 1020.7 - 0.0
19/06:30pm 19.5 18.2 14.7 74 2.8 S 15 17 8 9 1020.3 - 0.0
19/06:00pm 20.7 19.0 14.8 69 3.5 S 17 20 9 11 1020.0 1019.9 0.0
19/05:30pm 22.4 20.2 14.3 60 4.7 S 19 24 10 13 1019.7 - 0.0
19/05:00pm 23.3 20.4 14.0 56 5.4 SSE 22 28 12 15 1019.6 - 0.0
19/04:30pm 23.8 20.6 14.2 55 5.7 SSE 24 28 13 15 1019.3 - 0.0
19/04:00pm 24.2 21.6 14.9 56 5.5 SSE 22 30 12 16 1019.3 - 0.0
19/03:30pm 24.2 21.1 14.6 55 5.7 SSE 24 30 13 16 1019.4 - 0.0
19/03:00pm 24.0 21.0 14.7 56 5.5 SSE 24 32 13 17 1019.3 1019.2 0.0
19/02:30pm 23.9 20.9 14.9 57 5.4 SSE 24 32 13 17 1019.4 - 0.0
19/02:00pm 23.6 20.1 14.6 57 5.3 SE 26 32 14 17 1019.5 - 0.0
19/01:30pm 23.2 19.9 15.0 60 4.9 SSE 26 32 14 17 1019.7 - 0.0
19/01:00pm 22.9 20.2 15.5 63 4.4 SSE 24 35 13 19 1020.0 - 0.0
19/12:30pm 22.1 19.2 15.2 65 4.1 SSE 24 32 13 17 1020.6 - 0.0
19/12:00pm 21.8 19.1 15.6 68 3.7 SE 24 32 13 17 1021.0 1020.9 0.0
19/11:30am 21.3 18.5 15.4 69 3.5 SSE 24 28 13 15 1021.3 - 0.0
19/11:00am 20.8 18.2 15.8 73 3.0 SSE 24 30 13 16 1021.7 - 0.0
19/10:30am 19.9 16.6 14.9 73 2.9 SSE 26 32 14 17 1022.0 - 0.0
19/10:00am 19.7 16.9 15.4 76 2.5 SSE 24 30 13 16 1022.3 - 0.0
19/09:30am 18.6 15.5 14.5 77 2.4 S 24 32 13 17 1022.4 - 0.0
19/09:00am 18.3 15.7 14.8 80 2.0 SSE 22 28 12 15 1022.2 1022.1 72.2
19/08:30am 17.3 15.3 14.9 86 1.4 S 19 24 10 13 1022.2 - 72.2
19/08:00am 16.4 15.2 15.1 92 0.8 S 15 19 8 10 1021.8 - 72.2
19/07:30am 15.9 15.0 14.9 94 0.6 S 13 19 7 10 1021.5 - 72.2
19/07:00am 15.7 14.0 14.7 94 0.6 S 17 20 9 11 1021.1 - 72.2
19/06:30am 15.7 14.4 14.7 94 0.6 S 15 20 8 11 1020.9 - 72.2
19/06:00am 15.6 13.9 14.6 94 0.6 S 17 20 9 11 1020.6 1020.5 72.2
19/05:30am 15.9 14.3 14.9 94 0.6 S 17 20 9 11 1020.5 - 72.2
19/05:00am 16.4 14.8 14.9 91 0.9 S 17 28 9 15 1020.6 - 72.2
19/04:30am 18.1 17.4 14.2 78 2.2 WSW 11 17 6 9 1020.3 - 72.2
19/04:00am 19.2 15.3 15.5 79 2.2 NE 30 48 16 26 1018.9 - 72.2
19/03:59am 19.3 15.4 15.6 79 2.2 NE 30 48 16 26 1018.7 - 72.2
19/03:30am 20.8 14.1 13.3 62 4.3 NE 41 52 22 28 1017.5 - 72.2
19/03:00am 19.4 12.9 15.7 79 2.2 ENE 44 56 24 30 1017.3 1017.2 72.2
19/02:45am 18.9 14.4 16.3 85 1.6 ENE 35 50 19 27 1018.1 - 72.2
19/02:30am 18.0 15.3 15.6 86 1.4 ENE 24 32 13 17 1019.6 - 72.2
19/02:00am 17.0 15.9 15.3 90 1.0 ESE 15 20 8 11 1020.7 - 72.0
19/01:45am 16.4 16.0 15.3 93 0.6 E 11 17 6 9 1020.9 - 71.6
19/01:30am 16.1 17.5 15.3 95 0.5 S 2 9 1 5 1021.2 - 71.0
19/01:18am 16.0 17.3 15.2 95 0.5 SW 2 7 1 4 1021.1 - 70.4
19/01:00am 16.2 16.2 15.2 94 0.6 S 9 13 5 7 1021.3 - 69.6
19/12:30am 16.0 15.3 15.4 96 0.3 SSW 13 19 7 10 1021.4 - 68.8
19/12:00am 16.0 16.1 15.4 96 0.3 SSW 9 13 5 7 1021.4 1021.3 67.4
 
Date/Time
WST
Temp
°C
App
Temp
°C
Dew
Point
°C
Rel
Hum
%
Delta-T
°C
Wind Press
QNH
hPa
Press
MSL
hPa
Rain since
9am
mm
Dir  Spd
km/h
Gust
km/h
Spd
kts
Gust
kts
18/11:30pm 16.1 16.1 15.1 94 0.6 SSE 9 13 5 7 1021.4 - 66.0
18/11:00pm 16.1 14.6 15.3 95 0.5 S 17 20 9 11 1021.5 - 65.6
18/10:30pm 16.1 15.3 15.1 94 0.6 S 13 19 7 10 1021.7 - 64.4
18/10:00pm 16.3 13.8 15.2 93 0.6 S 22 28 12 15 1021.2 - 62.6
18/09:30pm 16.5 13.9 15.0 91 0.9 S 22 30 12 16 1020.9 - 61.2
18/09:00pm 16.5 13.6 15.2 92 0.8 S 24 33 13 18 1020.7 1020.6 60.8
18/08:30pm 16.5 13.7 15.4 93 0.6 S 24 35 13 19 1020.6 - 60.4
18/08:00pm 16.7 15.0 15.7 94 0.6 S 19 26 10 14 1020.3 - 59.2
18/07:30pm 16.7 15.1 15.9 95 0.5 S 19 24 10 13 1019.6 - 59.0
18/07:00pm 16.7 15.1 16.1 96 0.4 S 19 26 10 14 1019.3 - 58.4
18/06:30pm 16.6 14.0 16.0 96 0.4 S 24 35 13 19 1018.9 - 57.2
18/06:00pm 16.6 14.0 15.8 95 0.5 S 24 33 13 18 1018.6 1018.5 55.4
18/05:30pm 16.7 12.2 15.4 92 0.8 S 33 46 18 25 1017.9 - 53.8
18/05:25pm 16.7 12.4 15.4 92 0.8 SSE 32 46 17 25 1017.8 - 53.6
18/05:21pm 16.8 12.3 15.5 92 0.8 SSE 33 50 18 27 1017.8 - 53.4
18/05:06pm 16.9 11.3 15.6 92 0.8 SSE 39 54 21 29 1017.6 - 52.4
18/05:00pm 16.9 11.1 15.9 94 0.6 SSE 41 54 22 29 1017.5 - 52.0
18/04:58pm 17.0 11.2 16.0 94 0.6 SSE 41 54 22 29 1017.4 - 52.0
18/04:48pm 17.2 11.9 16.2 94 0.6 S 39 56 21 30 1017.4 - 50.8
18/04:46pm 17.4 12.2 16.6 95 0.5 S 39 56 21 30 1017.5 - 50.6
18/04:35pm 17.9 14.8 17.6 98 0.2 S 30 48 16 26 1017.2 - 49.8
18/04:30pm 17.9 15.2 17.6 98 0.2 S 28 35 15 19 1017.1 - 49.6
18/04:12pm 17.7 15.2 17.2 97 0.3 S 26 39 14 21 1017.1 - 47.8
18/04:11pm 17.7 14.9 17.2 97 0.3 S 28 39 15 21 1017.1 - 47.6
18/04:01pm 17.4 13.5 16.9 97 0.3 S 33 46 18 25 1017.0 - 46.8
18/04:00pm 17.4 13.5 16.9 97 0.3 S 33 46 18 25 1017.0 - 46.8
18/03:53pm 17.8 13.4 17.5 98 0.2 S 37 46 20 25 1016.8 - 46.0
18/03:45pm 18.0 15.4 17.8 99 0.1 S 28 46 15 25 1016.7 - 44.8
18/03:38pm 18.0 15.8 17.8 99 0.1 S 26 35 14 19 1016.7 - 44.0
18/03:32pm 17.8 15.1 17.6 99 0.1 S 28 33 15 18 1016.6 - 43.0
18/03:31pm 17.7 15.4 17.5 99 0.1 S 26 33 14 18 1016.7 - 43.0
18/03:30pm 17.6 14.8 17.4 99 0.1 S 28 35 15 19 1016.6 - 42.8
18/03:00pm 17.2 14.6 16.9 98 0.2 S 26 33 14 18 1016.3 1016.2 37.6
18/02:30pm 17.8 15.8 17.3 97 0.3 S 24 33 13 18 1016.0 - 32.4
18/02:16pm 18.2 16.7 17.7 97 0.3 S 22 30 12 16 1015.8 - 30.2
18/02:04pm 18.1 16.9 17.5 96 0.4 SSE 20 26 11 14 1015.6 - 28.8
18/02:00pm 18.1 16.5 17.5 96 0.4 SSE 22 26 12 14 1015.6 - 28.4
18/01:41pm 18.1 16.5 17.5 96 0.4 SSE 22 24 12 13 1015.6 - 26.8
18/01:32pm 18.3 17.4 17.8 97 0.3 S 19 24 10 13 1015.7 - 25.2
18/01:30pm 18.4 17.9 17.9 97 0.3 S 17 22 9 12 1015.7 - 25.2
18/01:23pm 18.4 17.6 17.9 97 0.3 S 19 22 10 12 1015.7 - 24.8
18/01:00pm 18.5 18.4 17.8 96 0.4 S 15 24 8 13 1016.1 - 20.0
18/12:48pm 18.5 17.6 17.7 95 0.5 S 19 22 10 12 1016.2 - 14.8
18/12:33pm 19.3 16.6 16.7 85 1.6 W 26 39 14 21 1016.4 - 3.4
18/12:30pm 19.5 16.2 16.9 85 1.6 W 30 39 16 21 1016.2 - 2.0
18/12:29pm 19.5 15.8 16.9 85 1.6 W 32 39 17 21 1016.1 - 2.0
18/12:00pm 21.3 21.7 17.3 78 2.5 E 11 17 6 9 1016.2 1016.1 0.4
18/11:30am 21.8 21.2 17.6 77 2.6 ENE 17 20 9 11 1016.2 - 0.0
18/11:00am 22.7 22.0 16.3 67 3.9 E 15 19 8 10 1016.6 - 0.0
18/10:30am 22.4 22.5 17.5 74 3.0 SE 13 19 7 10 1017.0 - 0.0
18/10:00am 22.0 23.2 18.2 79 2.4 SE 9 13 5 7 1017.3 - 0.0
18/09:38am 21.6 22.2 18.6 83 1.9 S 13 17 7 9 1017.3 - 0.0
18/09:30am 21.4 21.8 19.1 87 1.5 S 15 19 8 10 1017.4 - 0.0
18/09:00am 20.6 20.1 18.7 89 1.2 S 19 24 10 13 1017.5 1017.4 0.0
18/08:37am 21.2 23.3 19.3 89 1.2 ESE 7 11 4 6 1017.4 - 0.0
18/08:30am 21.2 22.5 19.3 89 1.2 E 11 15 6 8 1017.2 - 0.0

Other Formats:

Comma delimited format used in spreadsheet applications
http://www.bom.gov.au/fwo/IDW60801/IDW60801.94302.axf

JavaScript Object Notation format (JSON) in row-major order
http://www.bom.gov.au/fwo/IDW60801/IDW60801.94302.json